Time;durP1;ratioP1;P1;durP2;ratioP2;P2;SDS_P1;SDS_P2;PMS_P1;PMS_P2;Temp;Humidity;BMP_temperature;BMP_pressure;BME280_temperature;BME280_humidity;BME280_pressure;Samples;Min_cycle;Max_cycle;Signal;HPM_P1;HPM_P2
2022/03/12 00:00:30;;;;;;;8.90;6.55;;;10.90;34.40;;;;;;2080043;28;20121;-69
2022/03/12 00:01:31;;;;;;;13.10;6.57;;;11.00;34.30;;;;;;2076979;28;20040;-69
2022/03/12 00:02:32;;;;;;;11.68;6.65;;;10.90;34.20;;;;;;2078371;28;20047;-69
2022/03/12 00:03:33;;;;;;;8.82;6.60;;;10.90;34.10;;;;;;2075043;28;20474;-69
2022/03/12 00:04:34;;;;;;;9.60;6.60;;;10.90;34.50;;;;;;2077241;28;20387;-69
2022/03/12 00:05:35;;;;;;;11.68;6.82;;;10.90;34.50;;;;;;2081438;28;20110;-69
2022/03/12 00:06:36;;;;;;;10.07;6.93;;;10.90;34.60;;;;;;2079069;28;20092;-69
2022/03/12 00:07:42;;;;;;;8.75;6.80;;;10.90;34.50;;;;;;2076612;28;20026;-69
2022/03/12 00:08:43;;;;;;;9.27;7.20;;;10.90;34.50;;;;;;2076783;28;20466;-69
2022/03/12 00:09:44;;;;;;;11.07;6.90;;;10.90;34.50;;;;;;2074958;28;20036;-69
2022/03/12 00:10:48;;;;;;;7.93;6.43;;;10.90;34.60;;;;;;2081276;28;20029;-69
2022/03/12 00:11:51;;;;;;;10.00;6.85;;;10.90;34.40;;;;;;2082611;28;20018;-69
2022/03/12 00:12:53;;;;;;;11.18;6.53;;;10.90;34.30;;;;;;2074309;28;20065;-69
2022/03/12 00:13:55;;;;;;;12.00;6.80;;;10.90;34.20;;;;;;2078544;28;20031;-69
2022/03/12 00:14:56;;;;;;;10.68;6.95;;;10.90;34.40;;;;;;2080021;28;20017;-69
2022/03/12 00:15:58;;;;;;;9.52;6.88;;;10.90;34.50;;;;;;2077115;28;20018;-69
2022/03/12 00:16:59;;;;;;;9.38;6.97;;;10.90;35.00;;;;;;2074748;28;20014;-69
2022/03/12 00:17:59;;;;;;;10.52;6.60;;;10.90;34.90;;;;;;2076022;28;20032;-69
2022/03/12 00:19:04;;;;;;;11.93;6.93;;;10.90;34.80;;;;;;2082060;28;20021;-69
2022/03/12 00:20:09;;;;;;;9.30;7.40;;;10.90;34.60;;;;;;2080703;28;20021;-69
2022/03/12 00:21:13;;;;;;;9.90;6.45;;;10.90;34.80;;;;;;2081040;28;20034;-69
2022/03/12 00:22:14;;;;;;;10.02;6.88;;;10.90;34.80;;;;;;2076298;28;20579;-69
2022/03/12 00:23:21;;;;;;;9.00;7.22;;;10.90;34.80;;;;;;2082004;28;20077;-69
2022/03/12 00:24:22;;;;;;;11.55;6.88;;;10.90;34.80;;;;;;2080436;28;20061;-69
2022/03/12 00:25:26;;;;;;;9.02;6.72;;;10.90;34.40;;;;;;2080012;28;20033;-69
2022/03/12 00:26:29;;;;;;;13.30;6.85;;;10.90;34.50;;;;;;2077948;28;20038;-69
2022/03/12 00:27:29;;;;;;;9.77;6.93;;;10.90;34.70;;;;;;2083776;28;20083;-69
2022/03/12 00:28:30;;;;;;;7.18;6.38;;;10.90;34.60;;;;;;2081252;28;20064;-69
2022/03/12 00:29:32;;;;;;;9.32;6.32;;;10.90;34.50;;;;;;2082924;28;20025;-69
2022/03/12 00:30:34;;;;;;;8.80;6.80;;;10.90;34.80;;;;;;2077175;28;20079;-69
2022/03/12 00:31:35;;;;;;;8.98;6.60;;;10.90;34.50;;;;;;2082393;28;20064;-69
2022/03/12 00:32:36;;;;;;;10.13;7.13;;;10.90;34.80;;;;;;2078913;28;20026;-69
2022/03/12 00:33:36;;;;;;;9.73;6.43;;;10.90;34.70;;;;;;2076980;28;20026;-69
2022/03/12 00:34:37;;;;;;;11.43;6.95;;;10.90;34.50;;;;;;2078041;28;20053;-69
2022/03/12 00:35:38;;;;;;;11.93;6.75;;;10.90;34.70;;;;;;2077982;28;20557;-69
2022/03/12 00:36:39;;;;;;;8.15;6.55;;;10.90;34.50;;;;;;2082071;28;20048;-69
2022/03/12 00:37:39;;;;;;;11.02;6.75;;;10.90;34.60;;;;;;2082464;28;20442;-69
2022/03/12 00:38:40;;;;;;;10.05;6.68;;;10.90;34.70;;;;;;2077384;28;20022;-69
2022/03/12 00:39:44;;;;;;;11.07;6.65;;;10.90;34.80;;;;;;2080885;28;20033;-69
2022/03/12 00:40:45;;;;;;;10.85;6.78;;;10.90;34.80;;;;;;2078975;28;20131;-69
2022/03/12 00:41:45;;;;;;;9.85;7.47;;;10.90;34.60;;;;;;2079302;28;20548;-69
2022/03/12 00:42:46;;;;;;;8.75;6.40;;;10.90;34.80;;;;;;2075394;28;20483;-69
2022/03/12 00:43:46;;;;;;;8.68;6.82;;;10.90;34.70;;;;;;2080010;28;20047;-69
2022/03/12 00:44:47;;;;;;;12.52;6.95;;;10.90;34.60;;;;;;2081944;28;20021;-69
2022/03/12 00:45:48;;;;;;;7.55;6.75;;;10.90;34.50;;;;;;2081320;28;20032;-69
2022/03/12 00:46:49;;;;;;;12.80;6.90;;;10.90;34.50;;;;;;2078328;28;20021;-69
2022/03/12 00:47:50;;;;;;;8.20;6.63;;;10.90;34.50;;;;;;2076083;28;20129;-69
2022/03/12 00:48:50;;;;;;;11.98;6.40;;;10.90;34.50;;;;;;2078955;28;20030;-69
2022/03/12 00:49:51;;;;;;;10.07;7.32;;;10.90;34.50;;;;;;2080934;28;20034;-69
2022/03/12 00:50:52;;;;;;;7.22;6.45;;;10.90;34.60;;;;;;2079816;28;20457;-69
2022/03/12 00:51:52;;;;;;;9.23;6.95;;;10.90;34.50;;;;;;2080356;28;20365;-69
2022/03/12 00:52:53;;;;;;;11.05;6.80;;;11.00;34.70;;;;;;2083466;28;20024;-69
2022/03/12 00:53:53;;;;;;;7.72;6.28;;;10.90;34.60;;;;;;2081901;28;20601;-69
2022/03/12 00:54:54;;;;;;;9.88;7.15;;;10.90;34.80;;;;;;2078643;28;20031;-69
2022/03/12 00:55:54;;;;;;;11.55;6.70;;;10.90;34.80;;;;;;2077877;28;20104;-69
2022/03/12 00:56:55;;;;;;;9.32;7.10;;;10.90;35.00;;;;;;2074008;28;20050;-69
2022/03/12 00:57:56;;;;;;;8.20;6.65;;;10.90;34.80;;;;;;2075728;28;20022;-69
2022/03/12 00:58:58;;;;;;;10.38;7.25;;;11.00;34.90;;;;;;2079909;28;20020;-69
2022/03/12 00:59:58;;;;;;;11.40;7.32;;;11.00;34.80;;;;;;2077620;28;20033;-69
2022/03/12 01:00:59;;;;;;;10.10;6.60;;;10.90;35.10;;;;;;2083895;28;20025;-69
2022/03/12 01:01:59;;;;;;;9.88;7.07;;;10.90;35.00;;;;;;2081780;28;20495;-69
2022/03/12 01:03:01;;;;;;;11.68;6.80;;;10.90;34.70;;;;;;2079487;28;20022;-69
2022/03/12 01:04:01;;;;;;;9.82;7.53;;;10.90;34.80;;;;;;2075850;28;20536;-69
2022/03/12 01:05:02;;;;;;;10.18;6.75;;;11.00;34.90;;;;;;2077700;28;20033;-69
2022/03/12 01:06:04;;;;;;;12.15;7.10;;;10.90;34.60;;;;;;2082407;28;20436;-69
2022/03/12 01:07:05;;;;;;;11.48;7.05;;;10.90;34.70;;;;;;2081203;28;20026;-69
2022/03/12 01:08:07;;;;;;;8.82;6.95;;;11.00;34.90;;;;;;2080322;28;20462;-69
2022/03/12 01:09:10;;;;;;;12.30;6.88;;;11.00;34.90;;;;;;2077021;28;20046;-69
2022/03/12 01:10:12;;;;;;;9.57;6.57;;;11.00;34.90;;;;;;2077309;28;20610;-69
2022/03/12 01:11:13;;;;;;;12.55;7.03;;;10.90;34.70;;;;;;2076531;28;20104;-69
2022/03/12 01:12:13;;;;;;;9.02;6.22;;;10.90;34.60;;;;;;2073963;28;20025;-69
2022/03/12 01:13:14;;;;;;;7.65;6.70;;;10.90;34.60;;;;;;2078079;28;20104;-69
2022/03/12 01:14:15;;;;;;;8.18;6.43;;;10.90;34.80;;;;;;2084136;28;20032;-69
2022/03/12 01:15:16;;;;;;;8.35;6.45;;;10.90;34.90;;;;;;2079769;28;20394;-69
2022/03/12 01:16:17;;;;;;;8.18;6.47;;;11.00;35.20;;;;;;2082842;28;20037;-69
2022/03/12 01:17:18;;;;;;;10.82;6.80;;;11.00;35.10;;;;;;2076471;28;20026;-69
2022/03/12 01:18:21;;;;;;;7.55;6.40;;;11.00;35.20;;;;;;2081181;28;20064;-69
2022/03/12 01:19:21;;;;;;;10.35;6.57;;;11.00;35.10;;;;;;2074780;28;20030;-69
2022/03/12 01:20:25;;;;;;;10.85;6.63;;;11.00;35.00;;;;;;2077647;28;20029;-69
2022/03/12 01:21:26;;;;;;;8.45;7.03;;;11.00;35.20;;;;;;2077901;28;20029;-69
2022/03/12 01:22:29;;;;;;;9.88;6.68;;;11.00;35.10;;;;;;2077410;28;20069;-68
2022/03/12 01:23:29;;;;;;;8.88;6.70;;;11.00;35.20;;;;;;2082211;28;20033;-69
2022/03/12 01:24:31;;;;;;;11.95;6.38;;;10.90;35.50;;;;;;2082562;28;20039;-69
2022/03/12 01:25:32;;;;;;;8.18;6.45;;;10.90;35.10;;;;;;2081593;28;20033;-69
2022/03/12 01:26:34;;;;;;;8.63;7.40;;;10.90;35.20;;;;;;2079513;28;20029;-69
2022/03/12 01:27:35;;;;;;;8.52;6.75;;;10.90;35.10;;;;;;2078699;28;20056;-69
2022/03/12 01:28:35;;;;;;;12.35;7.10;;;10.90;35.40;;;;;;2078172;28;20784;-69
2022/03/12 01:29:36;;;;;;;9.90;6.20;;;10.90;35.60;;;;;;2079027;28;20058;-69
2022/03/12 01:30:38;;;;;;;8.88;6.95;;;10.90;35.40;;;;;;2073243;28;20034;-69
2022/03/12 01:31:38;;;;;;;8.98;6.88;;;10.90;35.40;;;;;;2082920;28;20050;-69
2022/03/12 01:32:39;;;;;;;7.18;6.32;;;10.90;35.90;;;;;;2077943;28;20632;-69
2022/03/12 01:33:39;;;;;;;13.18;7.13;;;10.90;35.50;;;;;;2078276;28;20061;-69
2022/03/12 01:34:40;;;;;;;9.43;7.40;;;10.90;35.60;;;;;;2077200;28;20034;-69
2022/03/12 01:35:41;;;;;;;7.55;6.75;;;10.90;35.70;;;;;;2075754;28;20032;-69
2022/03/12 01:36:41;;;;;;;10.85;7.15;;;10.90;35.50;;;;;;2080081;28;20737;-69
2022/03/12 01:37:42;;;;;;;7.82;6.72;;;10.90;35.40;;;;;;2079483;28;20030;-69
2022/03/12 01:38:50;;;;;;;11.43;7.00;;;10.90;35.70;;;;;;2078711;28;20534;-69
2022/03/12 01:39:51;;;;;;;10.57;7.10;;;10.90;35.60;;;;;;2079590;28;20013;-69
2022/03/12 01:40:52;;;;;;;13.13;7.45;;;10.90;35.50;;;;;;2080494;28;20025;-69
2022/03/12 01:41:53;;;;;;;8.02;7.10;;;10.80;35.80;;;;;;2080407;28;20500;-69
2022/03/12 01:42:54;;;;;;;9.98;7.15;;;10.90;35.60;;;;;;2076330;28;20030;-69
2022/03/12 01:43:57;;;;;;;12.77;7.03;;;10.80;35.60;;;;;;2078184;28;20117;-69
2022/03/12 01:44:58;;;;;;;9.18;7.30;;;10.80;36.30;;;;;;2077115;28;20072;-69
2022/03/12 01:46:01;;;;;;;8.98;7.05;;;10.80;35.40;;;;;;2079424;28;20078;-69
2022/03/12 01:47:07;;;;;;;13.27;7.55;;;10.80;35.60;;;;;;2080934;28;20036;-69
2022/03/12 01:48:08;;;;;;;9.05;7.15;;;10.80;36.00;;;;;;2077823;28;20018;-69
2022/03/12 01:49:12;;;;;;;10.52;7.57;;;10.80;35.70;;;;;;2080610;28;20041;-69
2022/03/12 01:50:13;;;;;;;13.98;7.40;;;10.80;35.70;;;;;;2080172;28;20124;-69
2022/03/12 01:51:15;;;;;;;10.05;6.65;;;10.80;35.60;;;;;;2076425;28;20052;-69
2022/03/12 01:52:16;;;;;;;11.07;7.38;;;10.80;35.90;;;;;;2078231;28;20018;-69
2022/03/12 01:53:16;;;;;;;10.27;7.20;;;10.80;35.70;;;;;;2077779;28;20032;-69
2022/03/12 01:54:23;;;;;;;12.57;7.38;;;10.80;35.80;;;;;;2082223;28;20017;-69
2022/03/12 01:55:30;;;;;;;10.48;6.90;;;10.80;35.90;;;;;;2079504;28;20502;-69
2022/03/12 01:56:31;;;;;;;14.48;7.70;;;10.80;36.10;;;;;;2083627;28;20059;-69
2022/03/12 01:57:32;;;;;;;8.98;6.85;;;10.80;35.80;;;;;;2074251;28;20111;-69
2022/03/12 01:58:34;;;;;;;10.23;7.32;;;10.80;36.00;;;;;;2076621;28;20042;-69
2022/03/12 01:59:36;;;;;;;11.23;7.78;;;10.80;36.00;;;;;;2076157;28;20034;-69
2022/03/12 02:00:48;;;;;;;11.95;7.75;;;10.80;35.90;;;;;;2075440;28;20025;-69
2022/03/12 02:01:51;;;;;;;10.27;7.53;;;10.80;35.90;;;;;;2080266;28;20052;-69
2022/03/12 02:02:53;;;;;;;8.07;7.28;;;10.80;36.10;;;;;;2083901;28;20134;-69
2022/03/12 02:03:56;;;;;;;9.98;6.70;;;10.80;36.00;;;;;;2079902;28;20100;-69
2022/03/12 02:04:57;;;;;;;13.10;7.65;;;10.70;35.90;;;;;;2079255;28;20031;-69
2022/03/12 02:05:59;;;;;;;9.93;7.05;;;10.80;36.10;;;;;;2080297;28;20029;-69
2022/03/12 02:06:59;;;;;;;8.45;7.15;;;10.80;36.10;;;;;;2077784;28;20633;-69
2022/03/12 02:08:01;;;;;;;9.65;6.65;;;10.80;36.00;;;;;;2077080;28;20021;-69
2022/03/12 02:09:03;;;;;;;8.60;6.45;;;10.80;36.00;;;;;;2073746;28;20057;-69
2022/03/12 02:10:06;;;;;;;12.30;7.05;;;10.80;36.20;;;;;;2081525;28;20803;-69
2022/03/12 02:11:07;;;;;;;9.88;7.03;;;10.70;35.90;;;;;;2081248;28;20417;-69
2022/03/12 02:12:08;;;;;;;12.07;7.43;;;10.70;36.00;;;;;;2079736;28;20041;-69
2022/03/12 02:13:09;;;;;;;9.13;7.40;;;10.70;35.90;;;;;;2081458;28;20140;-69
2022/03/12 02:14:12;;;;;;;12.07;7.38;;;10.70;35.90;;;;;;2077936;28;20398;-69
2022/03/12 02:15:13;;;;;;;11.52;7.45;;;10.70;36.10;;;;;;2077678;28;20148;-69
2022/03/12 02:16:13;;;;;;;11.00;7.38;;;10.70;36.00;;;;;;2077474;28;20060;-69
2022/03/12 02:17:14;;;;;;;9.77;7.53;;;10.70;36.50;;;;;;2078344;28;20033;-69
2022/03/12 02:18:15;;;;;;;10.15;7.18;;;10.70;36.40;;;;;;2082500;28;20056;-69
2022/03/12 02:19:17;;;;;;;9.02;7.90;;;10.70;36.30;;;;;;2082668;28;20508;-69
2022/03/12 02:20:20;;;;;;;9.15;7.50;;;10.70;36.50;;;;;;2078740;28;20026;-69
2022/03/12 02:21:38;;;;;;;10.68;7.50;;;10.70;36.50;;;;;;2080576;28;20053;-69
2022/03/12 02:22:38;;;;;;;12.60;7.20;;;10.70;36.30;;;;;;2081077;28;20033;-69
2022/03/12 02:23:47;;;;;;;9.02;6.70;;;10.60;36.30;;;;;;2078565;28;20137;-69
2022/03/12 02:24:47;;;;;;;9.77;7.25;;;10.70;36.30;;;;;;2079402;28;20026;-69
2022/03/12 02:25:48;;;;;;;8.57;7.13;;;10.70;36.30;;;;;;2079527;28;20039;-69
2022/03/12 02:26:49;;;;;;;11.50;7.13;;;10.70;36.60;;;;;;2083330;28;20025;-69
2022/03/12 02:27:50;;;;;;;8.27;6.75;;;10.70;36.50;;;;;;2082714;28;20047;-69
2022/03/12 02:28:50;;;;;;;8.70;6.93;;;10.60;36.40;;;;;;2081293;28;20496;-69
2022/03/12 02:29:53;;;;;;;9.63;7.18;;;10.60;36.40;;;;;;2075107;28;20032;-69
2022/03/12 02:30:55;;;;;;;10.25;7.50;;;10.70;36.50;;;;;;2079438;28;20104;-69
2022/03/12 02:32:03;;;;;;;11.32;7.00;;;10.70;36.70;;;;;;2079732;28;20021;-69
2022/03/12 02:33:04;;;;;;;8.57;7.03;;;10.60;36.70;;;;;;2079002;28;20021;-69
2022/03/12 02:34:07;;;;;;;8.55;7.63;;;10.60;36.60;;;;;;2081704;28;20517;-69
2022/03/12 02:35:10;;;;;;;10.80;7.35;;;10.60;36.50;;;;;;2076169;28;20080;-69
2022/03/12 02:36:13;;;;;;;11.00;7.20;;;10.60;36.60;;;;;;2079908;28;20021;-69
2022/03/12 02:37:33;;;;;;;11.10;7.28;;;10.60;36.70;;;;;;2079532;28;20044;-69
2022/03/12 02:38:34;;;;;;;8.93;7.22;;;10.60;36.80;;;;;;2075327;28;20034;-69
2022/03/12 02:39:38;;;;;;;9.55;8.00;;;10.60;37.10;;;;;;2077024;28;20133;-69
2022/03/12 02:40:41;;;;;;;12.07;6.70;;;10.60;36.90;;;;;;2074792;28;20030;-69
2022/03/12 02:41:42;;;;;;;10.07;7.30;;;10.60;36.90;;;;;;2076186;28;20116;-69
2022/03/12 02:42:43;;;;;;;9.20;7.32;;;10.60;37.00;;;;;;2075670;28;20409;-69
2022/03/12 02:43:44;;;;;;;10.60;7.45;;;10.60;37.10;;;;;;2077166;28;20084;-69
2022/03/12 02:44:47;;;;;;;9.85;7.63;;;10.60;37.20;;;;;;2080237;28;20083;-69
2022/03/12 02:45:50;;;;;;;9.50;8.05;;;10.60;37.10;;;;;;2078904;28;20171;-69
2022/03/12 02:47:26;;;;;;;9.10;7.47;;;10.60;37.30;;;;;;2080243;28;20025;-69
2022/03/12 02:48:26;;;;;;;20.52;7.97;;;10.60;37.90;;;;;;2072032;28;20497;-69
2022/03/12 02:49:27;;;;;;;9.38;7.78;;;10.60;37.10;;;;;;2079137;28;20034;-69
2022/03/12 02:50:28;;;;;;;9.07;7.30;;;10.60;37.10;;;;;;2083053;28;20106;-69
2022/03/12 02:51:28;;;;;;;9.73;7.80;;;10.50;37.10;;;;;;2070619;28;20028;-69
2022/03/12 02:52:31;;;;;;;12.68;7.38;;;10.60;37.10;;;;;;2076374;28;20033;-69
2022/03/12 02:53:33;;;;;;;10.43;7.68;;;10.50;37.10;;;;;;2074521;28;20022;-69
2022/03/12 02:54:34;;;;;;;11.82;7.95;;;10.50;37.10;;;;;;2075247;28;20549;-69
2022/03/12 02:55:39;;;;;;;9.85;7.57;;;10.60;37.20;;;;;;2076320;28;20389;-69
2022/03/12 02:56:40;;;;;;;10.55;7.50;;;10.50;37.00;;;;;;2076733;28;20072;-69
2022/03/12 02:57:42;;;;;;;8.98;7.13;;;10.50;37.10;;;;;;2073194;28;20025;-69
2022/03/12 02:58:43;;;;;;;10.18;7.63;;;10.60;37.30;;;;;;2081138;28;20029;-69
2022/03/12 02:59:46;;;;;;;11.27;7.30;;;10.50;37.10;;;;;;2076365;28;20149;-69
2022/03/12 03:00:47;;;;;;;10.55;7.93;;;10.50;37.40;;;;;;2077620;28;20032;-69
2022/03/12 03:01:50;;;;;;;11.00;7.80;;;10.50;37.40;;;;;;2076740;28;20162;-69
2022/03/12 03:02:54;;;;;;;12.43;7.32;;;10.50;37.60;;;;;;2078154;28;20113;-69
2022/03/12 03:03:55;;;;;;;11.90;8.20;;;10.50;37.50;;;;;;2074948;28;20501;-69
2022/03/12 03:04:56;;;;;;;9.68;7.43;;;10.50;37.50;;;;;;2077576;28;20017;-69
2022/03/12 03:05:56;;;;;;;9.73;7.85;;;10.50;37.80;;;;;;2077387;28;20022;-69
2022/03/12 03:07:00;;;;;;;9.95;7.85;;;10.50;38.00;;;;;;2082791;28;20066;-69
2022/03/12 03:08:04;;;;;;;9.23;7.75;;;10.50;37.70;;;;;;2074701;28;20029;-69
2022/03/12 03:09:04;;;;;;;9.90;7.18;;;10.50;37.60;;;;;;2077951;28;20076;-69
2022/03/12 03:10:06;;;;;;;11.40;8.00;;;10.60;37.80;;;;;;2079152;28;20075;-69
2022/03/12 03:11:17;;;;;;;9.63;7.47;;;10.50;37.70;;;;;;2084573;28;20013;-69
2022/03/12 03:12:20;;;;;;;9.10;7.40;;;10.60;38.50;;;;;;2076679;28;20471;-69
2022/03/12 03:13:40;;;;;;;9.32;7.40;;;10.50;38.00;;;;;;2083691;28;20051;-69
2022/03/12 03:14:42;;;;;;;11.33;7.83;;;10.50;37.80;;;;;;2080726;28;20041;-69
2022/03/12 03:15:49;;;;;;;8.68;6.95;;;10.50;37.70;;;;;;2077802;28;20269;-69
2022/03/12 03:16:50;;;;;;;8.75;7.40;;;10.50;37.70;;;;;;2078329;28;20025;-69
2022/03/12 03:17:51;;;;;;;7.97;7.10;;;10.50;37.90;;;;;;2076982;28;20029;-69
2022/03/12 03:18:53;;;;;;;13.38;7.65;;;10.50;38.00;;;;;;2078990;28;20021;-69
2022/03/12 03:19:55;;;;;;;10.40;8.30;;;10.50;38.30;;;;;;2077002;28;20075;-69
2022/03/12 03:20:56;;;;;;;9.70;7.72;;;10.50;38.50;;;;;;2080335;28;20021;-69
2022/03/12 03:21:58;;;;;;;11.70;7.72;;;10.50;37.80;;;;;;2079671;28;20061;-69
2022/03/12 03:22:59;;;;;;;11.52;8.10;;;10.50;38.10;;;;;;2082823;28;20032;-69
2022/03/12 03:24:00;;;;;;;9.95;7.13;;;10.50;38.30;;;;;;2080420;28;20030;-69
2022/03/12 03:25:00;;;;;;;9.93;7.25;;;10.50;38.10;;;;;;2077602;28;20105;-69
2022/03/12 03:26:02;;;;;;;10.02;7.60;;;10.50;38.30;;;;;;2080923;28;20029;-69
2022/03/12 03:27:03;;;;;;;9.25;7.75;;;10.50;38.60;;;;;;2077161;28;20120;-69
2022/03/12 03:28:08;;;;;;;9.10;8.15;;;10.50;38.10;;;;;;2076638;28;20028;-69
2022/03/12 03:29:09;;;;;;;12.65;7.38;;;10.50;38.00;;;;;;2083602;28;20101;-69
2022/03/12 03:30:09;;;;;;;11.27;8.00;;;10.50;38.00;;;;;;2076296;28;20029;-69
2022/03/12 03:31:11;;;;;;;10.80;7.32;;;10.50;38.10;;;;;;2080748;28;20029;-69
2022/03/12 03:32:13;;;;;;;12.88;7.65;;;10.50;38.30;;;;;;2081537;28;20020;-69
2022/03/12 03:33:16;;;;;;;10.05;7.13;;;10.50;38.20;;;;;;2080204;28;20025;-69
2022/03/12 03:34:18;;;;;;;9.90;8.05;;;10.50;38.20;;;;;;2077862;28;20016;-69
2022/03/12 03:35:18;;;;;;;10.32;7.32;;;10.50;38.30;;;;;;2072365;28;20382;-69
2022/03/12 03:36:19;;;;;;;12.48;7.88;;;10.50;38.30;;;;;;2082709;28;20124;-69
2022/03/12 03:37:20;;;;;;;10.00;8.02;;;10.50;38.30;;;;;;2086642;28;20109;-69
2022/03/12 03:38:20;;;;;;;9.45;7.93;;;10.50;38.50;;;;;;2078337;28;20089;-69
2022/03/12 03:39:21;;;;;;;12.52;8.07;;;10.50;38.80;;;;;;2082048;28;20668;-69
2022/03/12 03:40:22;;;;;;;9.75;7.80;;;10.50;38.70;;;;;;2080349;28;20533;-69
2022/03/12 03:41:22;;;;;;;9.80;7.38;;;10.50;38.70;;;;;;2078479;28;20076;-69
2022/03/12 03:42:23;;;;;;;13.63;8.20;;;10.50;38.50;;;;;;2077875;28;20484;-69
2022/03/12 03:43:24;;;;;;;10.07;7.85;;;10.50;38.60;;;;;;2076738;28;20040;-69
2022/03/12 03:44:29;;;;;;;9.98;7.65;;;10.50;38.50;;;;;;2075020;28;20030;-69
2022/03/12 03:45:29;;;;;;;12.25;8.00;;;10.50;38.70;;;;;;2082232;28;20041;-69
2022/03/12 03:46:30;;;;;;;11.40;7.97;;;10.50;38.60;;;;;;2078533;28;20109;-69
2022/03/12 03:47:31;;;;;;;9.27;7.75;;;10.50;38.80;;;;;;2081644;28;20573;-69
2022/03/12 03:48:39;;;;;;;9.95;8.15;;;10.50;39.00;;;;;;2074737;28;20097;-69
2022/03/12 03:49:40;;;;;;;11.20;8.43;;;10.40;39.00;;;;;;2075298;28;20026;-69
2022/03/12 03:50:42;;;;;;;10.88;7.50;;;10.40;39.10;;;;;;2077907;28;20021;-69
2022/03/12 03:51:43;;;;;;;9.13;7.82;;;10.40;39.20;;;;;;2077230;28;20030;-69
2022/03/12 03:52:44;;;;;;;8.57;7.68;;;10.40;39.30;;;;;;2083320;28;20026;-69
2022/03/12 03:53:45;;;;;;;13.00;8.20;;;10.40;39.40;;;;;;2081924;28;20037;-69
2022/03/12 03:54:45;;;;;;;10.88;8.23;;;10.40;39.40;;;;;;2079766;28;20029;-69
2022/03/12 03:55:46;;;;;;;14.90;8.30;;;10.40;39.40;;;;;;2073327;28;20110;-69
2022/03/12 03:56:47;;;;;;;8.88;8.00;;;10.40;39.40;;;;;;2072144;28;20485;-69
2022/03/12 03:57:48;;;;;;;9.85;7.65;;;10.40;39.50;;;;;;2074023;28;20030;-69
2022/03/12 03:58:48;;;;;;;11.20;8.25;;;10.40;39.80;;;;;;2075670;28;20593;-69
2022/03/12 03:59:49;;;;;;;12.63;8.27;;;10.40;39.70;;;;;;2080792;28;20036;-69
2022/03/12 04:00:56;;;;;;;11.07;7.75;;;10.40;39.90;;;;;;2083929;28;20067;-69
2022/03/12 04:01:57;;;;;;;13.43;8.13;;;10.40;40.00;;;;;;2081726;28;20056;-69
2022/03/12 04:03:04;;;;;;;10.27;7.65;;;10.40;40.00;;;;;;2075899;28;20013;-69
2022/03/12 04:04:05;;;;;;;10.10;8.07;;;10.40;39.80;;;;;;2075297;28;20103;-69
2022/03/12 04:05:06;;;;;;;12.73;7.97;;;10.30;40.00;;;;;;2077243;28;20052;-69
2022/03/12 04:06:07;;;;;;;10.15;8.10;;;10.30;40.00;;;;;;2077785;28;20034;-69
2022/03/12 04:07:07;;;;;;;10.55;7.82;;;10.30;40.00;;;;;;2076550;28;20052;-69
2022/03/12 04:08:08;;;;;;;11.15;7.53;;;10.30;40.00;;;;;;2081479;28;20021;-69
2022/03/12 04:09:10;;;;;;;11.23;8.45;;;10.30;40.10;;;;;;2077551;28;20621;-69
2022/03/12 04:10:10;;;;;;;9.65;8.10;;;10.30;40.10;;;;;;2080565;28;20469;-69
2022/03/12 04:11:19;;;;;;;11.55;8.52;;;10.30;40.10;;;;;;2075776;28;20415;-69
2022/03/12 04:12:20;;;;;;;11.35;8.63;;;10.30;40.20;;;;;;2076269;28;20855;-69
2022/03/12 04:13:22;;;;;;;14.38;8.27;;;10.30;41.00;;;;;;2080122;28;20385;-68
2022/03/12 04:14:25;;;;;;;10.57;8.95;;;10.30;40.30;;;;;;2076939;28;20134;-68
2022/03/12 04:15:26;;;;;;;10.20;8.00;;;10.30;40.40;;;;;;2079163;28;20116;-68
2022/03/12 04:16:28;;;;;;;10.80;8.20;;;10.30;40.30;;;;;;2081305;28;20540;-68
2022/03/12 04:17:28;;;;;;;12.52;7.60;;;10.30;40.40;;;;;;2076603;28;20030;-68
2022/03/12 04:18:29;;;;;;;12.90;8.02;;;10.30;40.50;;;;;;2080830;28;20061;-68
2022/03/12 04:19:30;;;;;;;11.32;8.65;;;10.30;40.90;;;;;;2077438;28;20034;-68
2022/03/12 04:20:32;;;;;;;9.57;8.13;;;10.30;41.00;;;;;;2077707;28;20374;-68
2022/03/12 04:21:33;;;;;;;9.55;8.05;;;10.30;41.00;;;;;;2076546;28;20699;-68
2022/03/12 04:22:38;;;;;;;10.82;8.15;;;10.20;40.80;;;;;;2073723;28;20033;-68
2022/03/12 04:23:42;;;;;;;9.13;7.15;;;10.20;40.90;;;;;;2080570;28;20033;-68
2022/03/12 04:24:43;;;;;;;9.55;8.35;;;10.20;40.80;;;;;;2083011;28;20677;-68
2022/03/12 04:25:43;;;;;;;11.50;8.15;;;10.20;40.90;;;;;;2077123;28;20470;-68
2022/03/12 04:26:44;;;;;;;9.60;7.57;;;10.20;41.00;;;;;;2077869;28;20080;-68
2022/03/12 04:27:45;;;;;;;11.85;7.88;;;10.20;41.20;;;;;;2079734;28;20080;-68
2022/03/12 04:28:46;;;;;;;9.07;7.72;;;10.20;41.10;;;;;;2077882;28;20052;-68
2022/03/12 04:29:46;;;;;;;13.57;8.23;;;10.20;41.20;;;;;;2076724;28;20017;-68
2022/03/12 04:30:47;;;;;;;11.52;8.15;;;10.30;41.20;;;;;;2076939;28;20454;-68
2022/03/12 04:31:48;;;;;;;11.13;7.68;;;10.20;41.30;;;;;;2080529;28;20044;-68
2022/03/12 04:32:49;;;;;;;13.13;8.38;;;10.20;41.30;;;;;;2082563;28;20053;-68
2022/03/12 04:33:51;;;;;;;11.15;8.18;;;10.20;41.40;;;;;;2075736;28;20461;-68
2022/03/12 04:34:51;;;;;;;10.90;8.32;;;10.20;41.50;;;;;;2074323;28;20021;-68
2022/03/12 04:35:52;;;;;;;12.15;8.70;;;10.20;41.30;;;;;;2077698;28;20025;-68
2022/03/12 04:36:53;;;;;;;12.02;8.70;;;10.20;41.60;;;;;;2077543;28;20059;-68
2022/03/12 04:37:54;;;;;;;9.48;8.48;;;10.20;41.70;;;;;;2072404;28;20417;-68
2022/03/12 04:38:55;;;;;;;11.77;8.20;;;10.20;41.70;;;;;;2076240;28;20021;-68
2022/03/12 04:39:56;;;;;;;9.68;8.40;;;10.20;41.80;;;;;;2078975;28;20117;-68
2022/03/12 04:40:57;;;;;;;11.32;8.15;;;10.20;41.70;;;;;;2077188;28;20021;-68
2022/03/12 04:41:58;;;;;;;10.90;8.75;;;10.20;41.70;;;;;;2076421;28;20022;-68
2022/03/12 04:42:58;;;;;;;10.63;7.82;;;10.20;42.10;;;;;;2075294;28;20089;-68
2022/03/12 04:43:59;;;;;;;10.82;7.68;;;10.20;42.10;;;;;;2079367;28;20378;-68
2022/03/12 04:45:00;;;;;;;10.35;8.50;;;10.20;41.90;;;;;;2080286;28;20021;-68
2022/03/12 04:46:02;;;;;;;10.95;8.27;;;10.20;42.00;;;;;;2074828;28;20049;-68
2022/03/12 04:47:03;;;;;;;10.18;7.85;;;10.20;42.20;;;;;;2076678;28;20013;-68
2022/03/12 04:48:04;;;;;;;10.50;8.52;;;10.20;42.50;;;;;;2082496;28;20025;-68
2022/03/12 04:49:05;;;;;;;10.77;8.27;;;10.20;42.30;;;;;;2081594;28;20032;-68
2022/03/12 04:50:06;;;;;;;10.80;7.82;;;10.20;42.40;;;;;;2080210;28;20060;-68
2022/03/12 04:51:07;;;;;;;11.30;8.75;;;10.20;42.50;;;;;;2076144;28;20346;-68
2022/03/12 04:52:10;;;;;;;9.70;7.75;;;10.20;42.50;;;;;;2079457;28;20032;-68
2022/03/12 04:53:11;;;;;;;11.15;8.18;;;10.20;42.40;;;;;;2077961;28;20030;-68
2022/03/12 04:54:12;;;;;;;10.63;7.57;;;10.30;42.40;;;;;;2075471;28;20013;-68
2022/03/12 04:55:15;;;;;;;9.95;8.18;;;10.20;42.50;;;;;;2075420;28;20025;-68
2022/03/12 04:56:16;;;;;;;12.13;7.45;;;10.30;42.60;;;;;;2072584;28;20018;-69
2022/03/12 04:57:16;;;;;;;10.85;7.93;;;10.20;42.90;;;;;;2072276;28;20030;-68
2022/03/12 04:58:18;;;;;;;9.48;7.10;;;10.30;42.90;;;;;;2074334;28;20077;-68
2022/03/12 04:59:19;;;;;;;11.90;8.38;;;10.30;42.80;;;;;;2078150;28;20415;-68
2022/03/12 05:00:25;;;;;;;12.05;7.85;;;10.30;42.70;;;;;;2074408;28;20022;-68
2022/03/12 05:01:28;;;;;;;11.13;8.32;;;10.30;42.90;;;;;;2072839;28;20037;-68
2022/03/12 05:02:28;;;;;;;13.00;8.18;;;10.30;43.10;;;;;;2077742;28;20732;-68
2022/03/12 05:03:29;;;;;;;10.45;8.23;;;10.30;43.10;;;;;;2080250;28;20029;-68
2022/03/12 05:04:30;;;;;;;10.80;8.38;;;10.30;43.10;;;;;;2077198;28;20100;-68
2022/03/12 05:05:30;;;;;;;8.88;7.47;;;10.30;43.20;;;;;;2078981;28;20536;-68
2022/03/12 05:06:31;;;;;;;11.55;7.72;;;10.30;43.40;;;;;;2077955;28;20030;-68
2022/03/12 05:07:32;;;;;;;11.70;8.40;;;10.30;43.50;;;;;;2077909;28;20033;-68
2022/03/12 05:08:35;;;;;;;9.70;7.43;;;10.30;43.50;;;;;;2079329;28;20105;-68
2022/03/12 05:09:35;;;;;;;11.50;7.97;;;10.30;43.40;;;;;;2075511;28;20073;-68
2022/03/12 05:10:37;;;;;;;10.07;7.90;;;10.30;43.60;;;;;;2079480;28;20025;-68
2022/03/12 05:11:38;;;;;;;10.43;7.55;;;10.30;43.60;;;;;;2085118;28;20087;-68
2022/03/12 05:12:40;;;;;;;14.80;8.32;;;10.30;43.50;;;;;;2079291;28;20131;-68
2022/03/12 05:13:40;;;;;;;11.20;8.32;;;10.30;43.50;;;;;;2084126;28;20018;-68
2022/03/12 05:14:44;;;;;;;8.88;7.35;;;10.30;43.60;;;;;;2081403;28;20501;-68
2022/03/12 05:15:44;;;;;;;13.57;8.07;;;10.30;43.80;;;;;;2079165;28;20779;-68
2022/03/12 05:16:48;;;;;;;8.07;7.28;;;10.30;43.60;;;;;;2075827;28;20727;-68
2022/03/12 05:17:49;;;;;;;11.50;8.63;;;10.30;43.80;;;;;;2076880;28;20053;-68
2022/03/12 05:18:50;;;;;;;10.65;8.73;;;10.30;43.90;;;;;;2082459;28;20025;-68
2022/03/12 05:19:50;;;;;;;13.52;7.80;;;10.40;44.10;;;;;;2084014;28;20017;-68